Startpagina
METAR-TAF:

METAR-TAF

Vliegvelden :

Vliegbasis Bevekom

Bevekom, België

breedte: 50-45N, lengte: 004-46E, hoogte: 105 m

Actueel weer

Dit bericht is 42 minuten geleden gemaakt, om 09:55 UTC
Wind 13 kt uit het westzuidwesten
Temperatuur 23°C
Vochtigheid 61%
Druk 1018 hPa
Zicht 10 km of meer
Weinig wolken op 2400 ft

METAR: EBBE 190955Z 25013KT 9999 FEW024 23/15 Q1018 BLU BLU

Tijdstip: 12:37 (10:37 UTC)

Verwachting

Dit bericht is 59 minuten geleden gemaakt, om 09:38 UTC
Verwachting geldig van 19 om 10 UTC tot 19 om 19 UTC
Wind 13 kt uit het zuidwesten met uitschieters tot 23 kt
Zicht 10 km of meer
Weinig wolken op 2000 ft
Gebroken wolken op 4000 ft

TAF: EBBE 190938Z 1910/1919 23013G23KT 9999 FEW020 BKN040

Waarnemingen en weersverwachtingen van meer dan 4000 vliegvelden (METAR en TAF).

De beschikbare stations zijn de gele en rode punten op de kaart.

Ga met uw muis naar het station om de naam te zien.

Klik dan om waarnemingen en weersverwachtingen te zien.

kaart wijzigen: klik op de groene knoppen met een zwart kruis om in te zoomen, op de groene knop met een streepje om uit te zoomen of op de groene pijlen voor aangrenzende kaarten.


METAR-TAF: